createdAt,value
2023-05-21T00:00:32.252Z,64.77
2023-05-21T00:05:34.629Z,64.21
2023-05-21T00:10:37.108Z,64.69
2023-05-21T00:15:39.321Z,63.62
2023-05-21T00:20:41.879Z,63.87
2023-05-21T00:25:43.927Z,63.48
2023-05-21T00:30:46.024Z,63.34
2023-05-21T00:35:48.456Z,64.63
2023-05-21T00:40:50.994Z,64.31
2023-05-21T00:45:54.014Z,62.99
2023-05-21T00:50:56.862Z,63.39
2023-05-21T00:55:58.966Z,63.30
2023-05-21T01:01:07.145Z,63.57
2023-05-21T01:06:10.814Z,64.28
2023-05-21T01:11:15.196Z,64.23
2023-05-21T01:16:18.102Z,64.20
2023-05-21T01:21:25.352Z,63.71
2023-05-21T01:26:28.781Z,63.68
2023-05-21T01:31:42.768Z,63.30
2023-05-21T01:36:55.727Z,64.26
2023-05-21T01:41:58.477Z,64.31
2023-05-21T01:47:00.941Z,64.51
2023-05-21T01:52:03.363Z,63.57
2023-05-21T01:57:05.693Z,63.81
2023-05-21T02:02:07.907Z,63.67
2023-05-21T02:07:10.530Z,63.66
2023-05-21T02:12:12.698Z,64.46
2023-05-21T02:17:14.782Z,64.64
2023-05-21T02:22:16.986Z,64.71
2023-05-21T02:27:19.140Z,64.74
2023-05-21T02:32:21.288Z,63.82
2023-05-21T02:37:23.439Z,64.39
2023-05-21T02:42:26.151Z,63.53
2023-05-21T02:47:28.785Z,64.83
2023-05-21T02:52:30.927Z,65.08
2023-05-21T02:57:33.020Z,64.02
2023-05-21T03:02:35.297Z,64.33
2023-05-21T03:07:37.471Z,64.20
2023-05-21T03:12:39.987Z,64.19
2023-05-21T03:17:45.195Z,63.57
2023-05-21T03:22:48.414Z,65.14
2023-05-21T03:27:50.490Z,65.52
2023-05-21T03:33:16.694Z,65.56
2023-05-21T03:38:19.293Z,65.32
2023-05-21T03:43:21.533Z,65.36
2023-05-21T03:48:23.864Z,65.48
2023-05-21T03:53:27.020Z,65.50
2023-05-21T03:58:29.436Z,65.58
2023-05-21T04:03:36.725Z,65.52
2023-05-21T04:08:41.457Z,65.45
2023-05-21T04:13:44.600Z,65.71
2023-05-21T04:18:47.152Z,66.00
2023-05-21T04:23:50.731Z,66.14
2023-05-21T04:29:03.932Z,66.11
2023-05-21T04:34:06.602Z,65.78
2023-05-21T04:39:08.885Z,65.87
2023-05-21T04:44:15.233Z,65.86
2023-05-21T04:49:21.186Z,65.82
2023-05-21T04:54:23.536Z,65.67
2023-05-21T04:59:25.726Z,65.85
2023-05-21T05:04:28.254Z,65.80
2023-05-21T05:09:31.931Z,65.79
2023-05-21T05:14:34.115Z,65.74
2023-05-21T05:19:36.801Z,65.49
2023-05-21T05:24:38.920Z,65.95
2023-05-21T05:29:42.400Z,66.19
2023-05-21T05:34:46.518Z,65.64
2023-05-21T05:39:48.832Z,65.45
2023-05-21T05:44:51.753Z,65.15
2023-05-21T05:49:53.910Z,65.14
2023-05-21T05:54:56.231Z,64.99
2023-05-21T05:59:58.362Z,64.93
2023-05-21T06:05:01.202Z,64.91
2023-05-21T06:10:03.404Z,64.74
2023-05-21T06:15:06.830Z,64.74
2023-05-21T06:20:10.077Z,64.65
2023-05-21T06:25:12.497Z,64.32
2023-05-21T06:30:14.769Z,64.73
2023-05-21T06:35:17.055Z,65.02
2023-05-21T06:40:19.332Z,64.90
2023-05-21T06:45:21.960Z,64.61
2023-05-21T06:50:27.258Z,64.68
2023-05-21T06:55:29.500Z,64.44
2023-05-21T07:00:49.637Z,64.19
2023-05-21T07:05:52.229Z,64.02
2023-05-21T07:10:54.485Z,64.17
2023-05-21T07:15:56.865Z,64.52
2023-05-21T07:21:00.546Z,64.70
2023-05-21T07:26:03.333Z,64.94
2023-05-21T07:31:05.783Z,64.86
2023-05-21T07:36:13.850Z,64.80
2023-05-21T07:41:18.438Z,64.32
2023-05-21T07:46:21.627Z,64.69
2023-05-21T07:51:28.066Z,64.29
2023-05-21T07:56:32.582Z,64.15
2023-05-21T08:01:37.505Z,64.29
2023-05-21T08:06:39.782Z,65.71
2023-05-21T08:11:42.042Z,64.98
2023-05-21T08:16:45.273Z,65.35
2023-05-21T08:21:47.858Z,64.66
2023-05-21T08:26:50.773Z,64.40
2023-05-21T08:31:53.752Z,64.38
2023-05-21T08:36:55.853Z,64.91
2023-05-21T08:42:36.976Z,64.54
2023-05-21T08:47:44.098Z,64.25
2023-05-21T08:52:47.066Z,64.48
2023-05-21T08:57:50.523Z,63.98
2023-05-21T09:02:54.825Z,64.34
2023-05-21T09:08:07.168Z,64.43
2023-05-21T09:13:18.136Z,63.95
2023-05-21T09:18:21.747Z,64.20
2023-05-21T09:23:32.760Z,65.11
2023-05-21T09:28:36.379Z,64.24
2023-05-21T09:33:47.276Z,64.75
2023-05-21T09:38:53.292Z,65.05
2023-05-21T09:44:00.346Z,64.32
2023-05-21T09:49:03.091Z,65.00
2023-05-21T09:54:05.192Z,65.44
2023-05-21T09:59:07.938Z,65.10
2023-05-21T10:04:10.631Z,64.71
2023-05-21T10:09:17.349Z,64.33
2023-05-21T10:14:25.709Z,64.61
2023-05-21T10:19:32.200Z,64.84
2023-05-21T10:24:35.829Z,64.53
2023-05-21T10:29:38.734Z,65.89
2023-05-21T10:34:41.154Z,65.09
2023-05-21T10:39:45.964Z,64.87
2023-05-21T10:45:13.695Z,64.68
2023-05-21T10:50:24.728Z,64.35
2023-05-21T10:55:42.601Z,64.14
2023-05-21T11:00:45.469Z,64.29
2023-05-21T11:05:57.580Z,65.20
2023-05-21T11:10:59.892Z,63.68
2023-05-21T11:16:02.356Z,64.37
2023-05-21T11:21:10.721Z,63.89
2023-05-21T11:26:12.856Z,63.99
2023-05-21T11:31:25.958Z,63.57
2023-05-21T11:36:28.248Z,64.38
2023-05-21T11:41:30.309Z,63.72
2023-05-21T11:46:34.327Z,63.39
2023-05-21T11:51:37.321Z,63.61
2023-05-21T11:56:42.236Z,63.71
2023-05-21T12:01:44.530Z,64.06
2023-05-21T12:06:48.511Z,63.12
2023-05-21T12:11:53.517Z,63.67
2023-05-21T12:16:55.661Z,63.97
2023-05-21T12:21:57.829Z,63.92
2023-05-21T12:27:01.513Z,63.45
2023-05-21T12:32:07.153Z,63.24
2023-05-21T12:37:09.644Z,63.95
2023-05-21T12:42:12.526Z,64.14
2023-05-21T12:47:14.756Z,63.84
2023-05-21T12:52:21.171Z,63.56
2023-05-21T12:57:28.568Z,63.57
2023-05-21T13:02:44.584Z,64.16
2023-05-21T13:07:48.297Z,64.08
2023-05-21T13:12:50.555Z,64.17
2023-05-21T13:17:55.155Z,63.72
2023-05-21T13:22:59.044Z,64.36
2023-05-21T13:28:10.385Z,64.10
2023-05-21T13:33:13.376Z,63.68
2023-05-21T13:38:15.667Z,63.92
2023-05-21T13:43:17.756Z,64.08
2023-05-21T13:48:19.968Z,63.99
2023-05-21T13:53:22.278Z,63.72
2023-05-21T13:58:24.362Z,63.90
2023-05-21T14:03:27.653Z,64.14
2023-05-21T14:08:29.846Z,63.78
2023-05-21T14:13:32.780Z,63.63
2023-05-21T14:18:34.918Z,63.73
2023-05-21T14:23:37.079Z,64.31
2023-05-21T14:28:39.244Z,63.78
2023-05-21T14:33:41.403Z,63.35
2023-05-21T14:38:43.570Z,63.78
2023-05-21T14:43:45.664Z,63.82
2023-05-21T14:48:47.942Z,63.78
2023-05-21T14:53:50.306Z,63.28
2023-05-21T14:58:52.569Z,63.53
2023-05-21T15:03:57.177Z,63.64
2023-05-21T15:08:59.521Z,64.19
2023-05-21T15:14:01.783Z,63.10
2023-05-21T15:19:04.693Z,63.34
2023-05-21T15:24:07.012Z,63.42
2023-05-21T15:29:09.088Z,63.04
2023-05-21T15:34:11.270Z,62.87
2023-05-21T15:39:13.397Z,63.45
2023-05-21T15:44:15.983Z,63.18
2023-05-21T15:49:18.074Z,62.80
2023-05-21T15:54:20.145Z,62.70
2023-05-21T15:59:22.282Z,62.82
2023-05-21T16:04:24.354Z,63.06
2023-05-21T16:09:26.454Z,62.69
2023-05-21T16:14:29.546Z,62.41
2023-05-21T16:19:31.840Z,62.50
2023-05-21T16:24:33.988Z,62.33
2023-05-21T16:29:36.785Z,62.17
2023-05-21T16:34:40.194Z,61.90
2023-05-21T16:39:42.265Z,62.07
2023-05-21T16:44:44.428Z,62.14
2023-05-21T16:49:46.542Z,62.00
2023-05-21T16:54:48.923Z,61.65
2023-05-21T16:59:51.024Z,61.34
2023-05-21T17:04:53.069Z,61.41
2023-05-21T17:09:55.075Z,61.37
2023-05-21T17:14:57.073Z,61.30
2023-05-21T17:19:59.248Z,60.88
2023-05-21T17:25:01.460Z,60.87
2023-05-21T17:30:04.801Z,60.86
2023-05-21T17:35:07.394Z,60.67
2023-05-21T17:40:09.893Z,60.85
2023-05-21T17:45:12.050Z,60.44
2023-05-21T17:50:14.265Z,60.13
2023-05-21T17:55:16.408Z,60.01
2023-05-21T18:00:18.944Z,60.21
2023-05-21T18:05:23.003Z,60.10
2023-05-21T18:10:25.052Z,60.09
2023-05-21T18:15:27.119Z,60.30
2023-05-21T18:20:30.208Z,60.05
2023-05-21T18:25:32.293Z,59.83
2023-05-21T18:30:35.064Z,60.08
2023-05-21T18:35:37.281Z,59.84
2023-05-21T18:40:39.715Z,59.97
2023-05-21T18:45:42.251Z,59.70
2023-05-21T18:50:44.430Z,59.85
2023-05-21T18:55:46.482Z,59.85
2023-05-21T19:00:48.759Z,59.64
2023-05-21T19:05:50.965Z,59.74
2023-05-21T19:10:53.201Z,59.85
2023-05-21T19:15:55.378Z,59.71
2023-05-21T19:20:57.776Z,59.53
2023-05-21T19:25:59.944Z,59.50
2023-05-21T19:31:01.977Z,59.27
2023-05-21T19:36:04.158Z,59.17
2023-05-21T19:41:06.212Z,59.43
2023-05-21T19:46:08.309Z,59.55
2023-05-21T19:51:10.431Z,59.37
2023-05-21T19:56:12.399Z,59.31
2023-05-21T20:01:17.993Z,59.21
2023-05-21T20:06:20.926Z,59.20
2023-05-21T20:11:23.513Z,59.01
2023-05-21T20:16:26.661Z,59.17
2023-05-21T20:21:30.297Z,59.19
2023-05-21T20:26:35.096Z,58.93
2023-05-21T20:31:37.365Z,58.92
2023-05-21T20:36:40.599Z,58.90
2023-05-21T20:41:44.883Z,59.03
2023-05-21T20:46:47.932Z,59.18
2023-05-21T20:51:50.091Z,59.18
2023-05-21T20:56:54.964Z,59.09
2023-05-21T21:01:57.452Z,58.96
2023-05-21T21:07:00.430Z,58.91
2023-05-21T21:12:11.317Z,58.78
2023-05-21T21:17:23.683Z,58.72
2023-05-21T21:22:25.840Z,58.85
2023-05-21T21:27:27.794Z,58.67
2023-05-21T21:32:29.811Z,58.85
2023-05-21T21:37:31.775Z,58.75
2023-05-21T21:42:33.767Z,58.66
2023-05-21T21:47:35.965Z,58.67
2023-05-21T21:52:41.595Z,58.63
2023-05-21T21:57:43.629Z,58.50
2023-05-21T22:02:48.577Z,58.25
2023-05-21T22:07:52.023Z,58.31
2023-05-21T22:12:54.208Z,58.68
2023-05-21T22:17:56.418Z,58.51
2023-05-21T22:22:59.730Z,58.47
2023-05-21T22:28:01.854Z,58.26
2023-05-21T22:33:03.995Z,58.55
2023-05-21T22:38:06.517Z,58.62
2023-05-21T22:43:08.707Z,58.41
2023-05-21T22:48:10.776Z,58.68
2023-05-21T22:53:13.269Z,58.38
2023-05-21T22:58:15.664Z,58.42
2023-05-21T23:03:17.947Z,58.37
2023-05-21T23:08:20.115Z,58.05
2023-05-21T23:13:22.210Z,58.44
2023-05-21T23:18:24.719Z,58.35
2023-05-21T23:23:26.813Z,58.23
2023-05-21T23:28:28.856Z,58.50
2023-05-21T23:33:31.200Z,58.65
2023-05-21T23:38:33.438Z,58.48
2023-05-21T23:43:36.514Z,58.26
2023-05-21T23:48:38.734Z,58.55
2023-05-21T23:53:40.958Z,58.18
2023-05-21T23:58:43.088Z,58.62
